Canefield Airport

Cloudy with slight dust haze
29oC (84oF)

Cloudy with slight dust haze


Winds: Southerly @ 02kts / 04km/h

Humidity: 65%

Barometric Pressure: 1015 mb

Accumulated Rainfall for June: 95.5 mm

Updated: 18:00 local time (22:00 UTC)

Douglas-Charles Airport

Cloudy and breezy with slight dust haze
27oC (81oF)

Cloudy and breezy with slight dust haze


Winds: East south easterly @ 12kts / 22km/h

Humidity: 83%

Barometric Pressure: 1017 mb

Accumulated Rainfall for June: 162.7 mm

Updated: 18:00 local time (22:00 UTC)

Satellite Imagery

Satellite Imagery
Click image for larger view. (Source: National Hurricane Center).

Aviation Routine Report (METAR)

Douglas-Charles: METAR TDPD 202200Z 11012KT 9999 FEW012 BKN015 27/24 Q1017=
Canefield: METAR TDCF 202200Z 19002KT 9999 BKN019 29/21 Q1015=